createdAt,value
2023-02-03T00:01:34.594Z,5.90
2023-02-03T00:04:37.951Z,6.00
2023-02-03T00:07:41.215Z,6.10
2023-02-03T00:10:44.353Z,6.10
2023-02-03T00:13:47.178Z,6.10
2023-02-03T00:16:51.483Z,6.00
2023-02-03T00:19:54.578Z,5.90
2023-02-03T00:23:04.742Z,5.80
2023-02-03T00:26:11.366Z,5.90
2023-02-03T00:29:14.721Z,6.10
2023-02-03T00:32:19.166Z,6.00
2023-02-03T00:35:22.519Z,6.10
2023-02-03T00:38:29.050Z,6.00
2023-02-03T00:41:32.658Z,6.00
2023-02-03T00:44:35.598Z,6.00
2023-02-03T00:47:40.005Z,6.00
2023-02-03T00:50:43.054Z,6.10
2023-02-03T00:53:46.048Z,6.10
2023-02-03T00:56:49.162Z,6.10
2023-02-03T00:59:52.022Z,6.10
2023-02-03T01:02:56.275Z,6.20
2023-02-03T01:06:10.006Z,6.10
2023-02-03T01:09:12.920Z,6.20
2023-02-03T01:12:15.868Z,6.10
2023-02-03T01:15:18.989Z,6.00
2023-02-03T01:18:23.170Z,6.10
2023-02-03T01:21:27.588Z,6.20
2023-02-03T01:24:30.957Z,6.20
2023-02-03T01:27:34.212Z,6.20
2023-02-03T01:30:37.085Z,6.30
2023-02-03T01:33:42.186Z,6.30
2023-02-03T01:36:46.737Z,6.30
2023-02-03T01:39:49.758Z,6.20
2023-02-03T01:42:52.750Z,6.20
2023-02-03T01:45:55.675Z,6.10
2023-02-03T01:49:08.018Z,6.20
2023-02-03T01:52:11.289Z,6.30
2023-02-03T01:55:18.362Z,6.10
2023-02-03T01:58:24.795Z,6.20
2023-02-03T02:01:28.403Z,6.00
2023-02-03T02:04:42.094Z,6.20
2023-02-03T02:07:46.311Z,6.00
2023-02-03T02:10:49.654Z,6.10
2023-02-03T02:13:54.357Z,6.10
2023-02-03T02:17:05.076Z,6.10
2023-02-03T02:20:32.379Z,6.10
2023-02-03T02:24:30.796Z,6.00
2023-02-03T02:28:14.615Z,6.10
2023-02-03T02:31:37.324Z,6.20
2023-02-03T02:34:51.723Z,6.00
2023-02-03T02:38:01.618Z,6.10
2023-02-03T02:41:09.359Z,6.20
2023-02-03T02:44:17.742Z,6.40
2023-02-03T02:47:24.272Z,6.20
2023-02-03T02:50:31.899Z,6.20
2023-02-03T02:53:38.363Z,6.10
2023-02-03T02:56:43.846Z,6.20
2023-02-03T02:59:47.084Z,6.20
2023-02-03T03:02:51.299Z,6.30
2023-02-03T03:05:56.791Z,6.30
2023-02-03T03:09:05.425Z,6.40
2023-02-03T03:12:13.151Z,6.30
2023-02-03T03:15:22.166Z,6.30
2023-02-03T03:18:31.360Z,6.30
2023-02-03T03:21:38.115Z,6.40
2023-02-03T03:24:46.886Z,6.40
2023-02-03T03:27:53.511Z,6.40
2023-02-03T03:30:56.466Z,6.50
2023-02-03T03:34:00.877Z,6.50
2023-02-03T03:37:11.986Z,6.50
2023-02-03T03:40:22.710Z,6.50
2023-02-03T03:43:29.476Z,6.40
2023-02-03T03:46:38.254Z,6.30
2023-02-03T03:49:46.089Z,6.30
2023-02-03T03:52:52.219Z,6.20
2023-02-03T03:55:56.128Z,6.20
2023-02-03T03:59:00.995Z,6.30
2023-02-03T04:02:05.415Z,6.40
2023-02-03T04:05:11.755Z,6.40
2023-02-03T04:08:14.580Z,6.30
2023-02-03T04:11:37.413Z,6.10
2023-02-03T04:14:40.867Z,6.10
2023-02-03T04:17:43.705Z,6.10
2023-02-03T04:20:47.888Z,6.20
2023-02-03T04:23:51.404Z,6.30
2023-02-03T04:26:54.222Z,6.40
2023-02-03T04:29:57.058Z,6.30
2023-02-03T04:32:59.873Z,6.40
2023-02-03T04:36:04.222Z,6.20
2023-02-03T04:39:07.174Z,6.30
2023-02-03T04:42:10.063Z,6.20
2023-02-03T04:45:13.923Z,6.20
2023-02-03T04:48:16.782Z,6.00
2023-02-03T04:51:20.945Z,6.20
2023-02-03T04:54:23.822Z,6.10
2023-02-03T04:57:26.679Z,6.20
2023-02-03T05:00:30.548Z,6.40
2023-02-03T05:03:33.561Z,6.20
2023-02-03T05:06:37.820Z,6.10
2023-02-03T05:09:40.658Z,6.30
2023-02-03T05:12:43.944Z,6.20
2023-02-03T05:15:46.765Z,6.10
2023-02-03T05:18:49.629Z,6.00
2023-02-03T05:21:53.819Z,6.10
2023-02-03T05:24:56.644Z,6.30
2023-02-03T05:27:59.557Z,6.20
2023-02-03T05:31:03.163Z,6.20
2023-02-03T05:34:06.158Z,6.10
2023-02-03T05:37:10.332Z,6.00
2023-02-03T05:40:31.957Z,6.00
2023-02-03T05:43:34.960Z,5.90
2023-02-03T05:46:37.768Z,6.00
2023-02-03T05:49:40.550Z,6.00
2023-02-03T05:52:44.928Z,6.00
2023-02-03T05:55:47.754Z,6.10
2023-02-03T05:58:53.240Z,5.90
2023-02-03T06:01:56.156Z,5.90
2023-02-03T06:04:59.023Z,5.80
2023-02-03T06:08:03.216Z,5.90
2023-02-03T06:11:06.285Z,5.90
2023-02-03T06:14:09.073Z,5.90
2023-02-03T06:17:12.225Z,6.00
2023-02-03T06:20:17.073Z,6.00
2023-02-03T06:23:21.258Z,6.00
2023-02-03T06:26:25.045Z,5.90
2023-02-03T06:29:27.850Z,6.00
2023-02-03T06:32:30.669Z,6.00
2023-02-03T06:35:33.507Z,6.00
2023-02-03T06:38:37.654Z,6.10
2023-02-03T06:41:40.485Z,6.10
2023-02-03T06:44:43.652Z,6.20
2023-02-03T06:47:47.008Z,6.20
2023-02-03T06:50:50.133Z,6.10
2023-02-03T06:53:54.316Z,6.10
2023-02-03T06:56:57.123Z,6.10
2023-02-03T07:00:00.115Z,5.90
2023-02-03T07:03:03.165Z,6.00
2023-02-03T07:06:06.586Z,6.00
2023-02-03T07:09:10.801Z,5.90
2023-02-03T07:12:13.627Z,6.00
2023-02-03T07:15:16.891Z,6.00
2023-02-03T07:18:45.471Z,6.00
2023-02-03T07:21:47.142Z,6.20
2023-02-03T07:24:51.389Z,6.20
2023-02-03T07:27:54.717Z,6.10
2023-02-03T07:30:57.792Z,6.10
2023-02-03T07:34:01.101Z,6.20
2023-02-03T07:37:04.016Z,6.00
2023-02-03T07:40:09.425Z,6.10
2023-02-03T07:43:12.317Z,6.20
2023-02-03T07:46:15.217Z,6.20
2023-02-03T07:49:18.684Z,6.10
2023-02-03T07:52:22.133Z,6.30
2023-02-03T07:55:26.662Z,6.30
2023-02-03T07:58:30.118Z,6.40
2023-02-03T08:01:34.170Z,6.40
2023-02-03T08:04:37.243Z,6.20
2023-02-03T08:07:40.452Z,6.20
2023-02-03T08:10:44.959Z,6.40
2023-02-03T08:13:47.997Z,6.50
2023-02-03T08:16:51.295Z,6.50
2023-02-03T08:19:54.157Z,6.50
2023-02-03T08:22:57.007Z,6.40
2023-02-03T08:26:01.469Z,6.60
2023-02-03T08:29:04.823Z,6.60
2023-02-03T08:32:10.784Z,6.60
2023-02-03T08:35:13.640Z,6.50
2023-02-03T08:38:16.614Z,6.50
2023-02-03T08:41:20.818Z,6.50
2023-02-03T08:44:23.708Z,6.60
2023-02-03T08:47:27.356Z,6.50
2023-02-03T08:50:30.459Z,6.70
2023-02-03T08:53:33.655Z,6.60
2023-02-03T08:56:37.873Z,6.60
2023-02-03T08:59:43.110Z,6.60
2023-02-03T09:02:46.004Z,6.60
2023-02-03T09:05:48.882Z,6.60
2023-02-03T09:08:51.889Z,6.60
2023-02-03T09:12:02.084Z,6.70
2023-02-03T09:15:05.514Z,6.60
2023-02-03T09:18:08.346Z,6.60
2023-02-03T09:21:20.913Z,6.80
2023-02-03T09:24:35.104Z,6.80
2023-02-03T09:27:39.634Z,6.90
2023-02-03T09:30:42.601Z,6.80
2023-02-03T09:33:46.793Z,6.70
2023-02-03T09:36:51.297Z,6.80
2023-02-03T09:39:54.223Z,6.80
2023-02-03T09:43:06.058Z,6.80
2023-02-03T09:46:13.210Z,7.00
2023-02-03T09:49:22.819Z,6.90
2023-02-03T09:52:29.233Z,6.90
2023-02-03T09:55:38.065Z,6.90
2023-02-03T09:58:42.757Z,6.90
2023-02-03T10:01:54.028Z,7.10
2023-02-03T10:05:02.806Z,7.30
2023-02-03T10:08:15.272Z,7.20
2023-02-03T10:11:26.204Z,7.30
2023-02-03T10:14:43.126Z,7.20
2023-02-03T10:17:53.041Z,7.10
2023-02-03T10:21:01.173Z,7.20
2023-02-03T10:24:06.643Z,7.20
2023-02-03T10:27:18.379Z,7.30
2023-02-03T10:30:24.193Z,7.30
2023-02-03T10:33:29.357Z,7.30
2023-02-03T10:36:42.946Z,7.40
2023-02-03T10:39:48.495Z,7.40
2023-02-03T10:43:09.961Z,7.50
2023-02-03T10:46:14.449Z,7.50
2023-02-03T10:49:19.110Z,7.40
2023-02-03T10:52:30.973Z,7.50
2023-02-03T10:55:33.851Z,7.60
2023-02-03T10:58:39.577Z,7.60
2023-02-03T11:01:46.188Z,7.50
2023-02-03T11:04:49.421Z,7.50
2023-02-03T11:07:53.190Z,7.50
2023-02-03T11:11:04.234Z,7.40
2023-02-03T11:14:17.762Z,7.40
2023-02-03T11:17:24.453Z,7.40
2023-02-03T11:20:28.961Z,7.60
2023-02-03T11:23:32.110Z,7.50
2023-02-03T11:26:38.124Z,7.60
2023-02-03T11:29:44.022Z,7.70
2023-02-03T11:32:49.486Z,7.80
2023-02-03T11:35:59.044Z,7.80
2023-02-03T11:39:24.954Z,7.90
2023-02-03T11:42:28.220Z,7.70
2023-02-03T11:45:38.494Z,8.00
2023-02-03T11:48:57.476Z,7.90
2023-02-03T11:52:07.263Z,7.90
2023-02-03T11:55:21.221Z,8.10
2023-02-03T11:58:51.976Z,8.10
2023-02-03T12:02:30.367Z,8.10
2023-02-03T12:05:46.155Z,8.10
2023-02-03T12:09:10.625Z,8.00
2023-02-03T12:12:33.680Z,8.00
2023-02-03T12:15:52.643Z,8.00
2023-02-03T12:19:06.189Z,7.90
2023-02-03T12:22:19.676Z,7.90
2023-02-03T12:25:34.477Z,7.90
2023-02-03T12:28:47.543Z,8.10
2023-02-03T12:31:57.949Z,7.90
2023-02-03T12:35:12.839Z,7.90
2023-02-03T12:38:31.154Z,8.00
2023-02-03T12:41:39.045Z,8.10
2023-02-03T12:44:48.122Z,8.20
2023-02-03T12:47:56.158Z,8.10
2023-02-03T12:51:05.256Z,8.10
2023-02-03T12:54:19.469Z,8.10
2023-02-03T12:57:29.237Z,8.00
2023-02-03T13:00:41.486Z,8.10
2023-02-03T13:03:49.443Z,7.90
2023-02-03T13:07:01.495Z,8.00
2023-02-03T13:10:16.165Z,8.00
2023-02-03T13:13:25.567Z,8.00
2023-02-03T13:16:34.669Z,7.90
2023-02-03T13:19:43.757Z,7.90
2023-02-03T13:22:46.889Z,7.70
2023-02-03T13:26:18.686Z,7.80
2023-02-03T13:29:39.609Z,7.60
2023-02-03T13:33:12.700Z,7.70
2023-02-03T13:36:43.712Z,7.90
2023-02-03T13:39:56.648Z,7.90
2023-02-03T13:43:05.672Z,7.70
2023-02-03T13:46:18.262Z,7.80
2023-02-03T13:49:26.253Z,7.90
2023-02-03T13:52:35.116Z,7.70
2023-02-03T13:55:41.677Z,7.80
2023-02-03T13:59:00.828Z,7.80
2023-02-03T14:02:52.752Z,7.90
2023-02-03T14:05:56.935Z,7.60
2023-02-03T14:09:00.816Z,7.60
2023-02-03T14:12:41.418Z,7.70
2023-02-03T14:15:48.148Z,7.80
2023-02-03T14:18:51.050Z,7.70
2023-02-03T14:21:57.042Z,7.60
2023-02-03T14:25:07.793Z,7.60
2023-02-03T14:28:14.501Z,7.50
2023-02-03T14:31:24.043Z,7.50
2023-02-03T14:34:33.771Z,7.50
2023-02-03T14:37:36.696Z,7.60
2023-02-03T14:40:46.234Z,7.60
2023-02-03T14:43:59.086Z,7.50
2023-02-03T14:47:11.865Z,7.60
2023-02-03T14:50:35.767Z,7.50
2023-02-03T14:53:54.477Z,7.60
2023-02-03T14:57:18.376Z,7.70
2023-02-03T15:00:31.418Z,7.70
2023-02-03T15:03:37.866Z,7.60
2023-02-03T15:06:43.472Z,7.60
2023-02-03T15:09:48.207Z,7.60
2023-02-03T15:12:52.842Z,7.50
2023-02-03T15:15:57.554Z,7.50
2023-02-03T15:19:07.361Z,7.50
2023-02-03T15:22:24.122Z,7.60
2023-02-03T15:25:29.740Z,7.60
2023-02-03T15:28:32.861Z,7.60
2023-02-03T15:31:42.475Z,7.50
2023-02-03T15:34:49.836Z,7.50
2023-02-03T15:37:57.252Z,7.40
2023-02-03T15:41:00.183Z,7.40
2023-02-03T15:44:09.870Z,7.40
2023-02-03T15:47:23.511Z,7.50
2023-02-03T15:50:34.272Z,7.60
2023-02-03T15:53:47.972Z,7.50
2023-02-03T15:56:57.616Z,7.40
2023-02-03T16:00:03.359Z,7.50
2023-02-03T16:03:15.832Z,7.40
2023-02-03T16:06:25.545Z,7.50
2023-02-03T16:09:34.205Z,7.30
2023-02-03T16:12:37.079Z,7.30
2023-02-03T16:15:39.948Z,7.20
2023-02-03T16:18:51.883Z,7.30
2023-02-03T16:21:57.715Z,7.40
2023-02-03T16:25:15.233Z,7.50
2023-02-03T16:28:36.794Z,7.30
2023-02-03T16:32:02.359Z,7.40
2023-02-03T16:35:28.576Z,7.20
2023-02-03T16:38:50.401Z,7.30
2023-02-03T16:42:10.887Z,7.30
2023-02-03T16:45:33.756Z,7.20
2023-02-03T16:48:54.274Z,7.10
2023-02-03T16:51:57.167Z,7.20
2023-02-03T16:55:01.351Z,7.10
2023-02-03T16:58:04.170Z,7.10
2023-02-03T17:01:09.578Z,7.20
2023-02-03T17:04:12.575Z,7.20
2023-02-03T17:07:15.438Z,7.10
2023-02-03T17:10:19.699Z,7.10
2023-02-03T17:13:24.366Z,7.20
2023-02-03T17:16:28.743Z,7.20
2023-02-03T17:19:31.604Z,7.20
2023-02-03T17:22:34.855Z,7.20
2023-02-03T17:25:40.496Z,7.20
2023-02-03T17:28:44.281Z,7.20
2023-02-03T17:31:47.213Z,7.10
2023-02-03T17:34:50.069Z,7.10
2023-02-03T17:37:52.944Z,7.00
2023-02-03T17:54:28.439Z,7.10
2023-02-03T17:57:34.360Z,7.20
2023-02-03T18:00:37.724Z,7.10
2023-02-03T18:03:41.641Z,7.00
2023-02-03T18:06:46.287Z,6.70
2023-02-03T18:09:49.138Z,6.90
2023-02-03T18:12:53.309Z,6.80
2023-02-03T18:15:57.163Z,6.90
2023-02-03T18:19:02.184Z,7.00
2023-02-03T18:22:05.083Z,6.80
2023-02-03T18:25:09.640Z,6.80
2023-02-03T18:28:15.915Z,6.90
2023-02-03T18:31:19.099Z,7.00
2023-02-03T18:34:21.954Z,6.90
2023-02-03T18:37:24.864Z,6.80
2023-02-03T18:40:28.073Z,6.80
2023-02-03T18:43:32.589Z,6.90
2023-02-03T18:46:35.531Z,6.70
2023-02-03T18:49:39.270Z,6.90
2023-02-03T18:52:42.129Z,6.90
2023-02-03T18:55:45.467Z,6.90
2023-02-03T18:58:50.166Z,6.80
2023-02-03T19:01:53.019Z,6.80
2023-02-03T19:04:55.869Z,6.70
2023-02-03T19:07:58.749Z,6.60
2023-02-03T19:11:01.575Z,6.50
2023-02-03T19:14:05.746Z,6.50
2023-02-03T19:17:10.165Z,6.40
2023-02-03T19:20:14.236Z,6.50
2023-02-03T19:23:17.355Z,6.30
2023-02-03T19:26:20.216Z,6.50
2023-02-03T19:29:24.353Z,6.40
2023-02-03T19:32:27.242Z,6.30
2023-02-03T19:35:32.996Z,6.30
2023-02-03T19:38:36.354Z,6.40
2023-02-03T19:41:39.178Z,6.50
2023-02-03T19:44:43.644Z,6.70
2023-02-03T19:47:46.458Z,6.60
2023-02-03T19:50:49.633Z,6.50
2023-02-03T19:53:53.711Z,6.40
2023-02-03T19:56:56.603Z,6.40
2023-02-03T20:00:00.778Z,6.30
2023-02-03T20:03:03.687Z,6.30
2023-02-03T20:06:07.008Z,6.30
2023-02-03T20:09:10.291Z,6.30
2023-02-03T20:12:13.456Z,6.30
2023-02-03T20:15:17.670Z,6.30
2023-02-03T20:18:20.817Z,6.20
2023-02-03T20:21:23.637Z,6.30
2023-02-03T20:24:26.474Z,6.50
2023-02-03T20:27:29.323Z,6.40
2023-02-03T20:30:33.798Z,6.30
2023-02-03T20:33:36.747Z,6.40
2023-02-03T20:36:39.608Z,6.50
2023-02-03T20:39:42.617Z,6.50
2023-02-03T20:42:45.472Z,6.50
2023-02-03T20:45:50.341Z,6.50
2023-02-03T20:48:53.186Z,6.40
2023-02-03T20:51:56.009Z,6.40
2023-02-03T20:54:58.825Z,6.50
2023-02-03T20:58:02.826Z,6.40
2023-02-03T21:01:13.610Z,6.60
2023-02-03T21:04:36.719Z,6.40
2023-02-03T21:07:39.574Z,6.50
2023-02-03T21:10:43.208Z,6.60
2023-02-03T21:13:47.808Z,6.60
2023-02-03T21:16:53.941Z,6.60
2023-02-03T21:19:56.919Z,6.60
2023-02-03T21:23:00.180Z,6.50
2023-02-03T21:26:08.015Z,6.50
2023-02-03T21:29:21.793Z,6.40
2023-02-03T21:32:27.920Z,6.50
2023-02-03T21:35:34.867Z,6.50
2023-02-03T21:38:37.702Z,6.60
2023-02-03T21:41:40.508Z,6.40
2023-02-03T21:44:45.144Z,6.30
2023-02-03T21:47:50.693Z,6.20
2023-02-03T21:50:54.178Z,6.40
2023-02-03T21:54:00.236Z,6.30
2023-02-03T21:57:03.114Z,6.30
2023-02-03T22:00:38.906Z,6.20
2023-02-03T22:03:47.512Z,6.30
2023-02-03T22:06:53.978Z,6.40
2023-02-03T22:09:56.832Z,6.40
2023-02-03T22:12:59.778Z,6.40
2023-02-03T22:16:02.857Z,6.40
2023-02-03T22:19:07.142Z,6.50
2023-02-03T22:22:09.944Z,6.40
2023-02-03T22:25:12.882Z,6.20
2023-02-03T22:28:16.046Z,6.10
2023-02-03T22:31:19.861Z,6.20
2023-02-03T22:34:24.202Z,6.30
2023-02-03T22:37:28.135Z,6.20
2023-02-03T22:40:31.223Z,6.30
2023-02-03T22:43:34.685Z,6.30
2023-02-03T22:46:37.504Z,6.30
2023-02-03T22:49:41.697Z,6.20
2023-02-03T22:52:44.514Z,6.30
2023-02-03T22:55:47.380Z,6.20
2023-02-03T22:58:50.198Z,6.20
2023-02-03T23:01:53.686Z,6.30
2023-02-03T23:04:57.866Z,6.10
2023-02-03T23:08:00.948Z,6.20
2023-02-03T23:11:03.808Z,6.20
2023-02-03T23:14:06.752Z,6.10
2023-02-03T23:17:09.563Z,6.10
2023-02-03T23:20:16.194Z,6.20
2023-02-03T23:23:19.005Z,6.20
2023-02-03T23:26:21.838Z,6.10
2023-02-03T23:29:24.715Z,6.20
2023-02-03T23:32:27.540Z,6.00
2023-02-03T23:35:46.957Z,6.00
2023-02-03T23:38:49.788Z,6.20
2023-02-03T23:41:52.592Z,6.30
2023-02-03T23:44:55.923Z,6.40
2023-02-03T23:47:58.893Z,6.30
2023-02-03T23:51:03.084Z,6.30
2023-02-03T23:54:06.105Z,6.50
2023-02-03T23:57:08.937Z,6.50
